Terminal Aerodrome Forecast
Issued by NWS

Home | Current Version | Previous Version | Text Only | Print | Product List | Glossary On
Versions: 1 2 3 4 5 6 7 8 9 10 11 12 13 14 15 16 17 18 19 20 21 22 23
000
FTUS44 KLZK 191302 AAA
TAFADF
TAF AMD
KADF 191302Z 1913/2012 00000KT 1/4SM FG BKN004
     FM191400 19006KT P6SM SCT050
     FM200200 18002KT P6SM SCT250
     FM200400 18003KT 3SM BR SCT005 SCT250=

USA.gov is the U.S. government's official web portal to all federal, state and local government web resources and services.